createdAt,value
2022-08-17T00:00:36.909Z,80.70
2022-08-17T00:03:17.798Z,81.10
2022-08-17T00:05:49.408Z,81.50
2022-08-17T00:08:38.562Z,81.80
2022-08-17T00:11:11.171Z,82.00
2022-08-17T00:14:02.030Z,82.30
2022-08-17T00:16:53.464Z,82.50
2022-08-17T00:19:25.594Z,82.90
2022-08-17T00:22:34.061Z,83.20
2022-08-17T00:24:49.484Z,83.40
2022-08-17T00:27:19.934Z,83.90
2022-08-17T00:29:49.013Z,83.90
2022-08-17T00:33:14.164Z,83.70
2022-08-17T00:35:09.963Z,83.70
2022-08-17T00:37:38.900Z,83.80
2022-08-17T00:40:10.178Z,83.90
2022-08-17T00:42:58.976Z,84.00
2022-08-17T00:45:28.421Z,84.00
2022-08-17T00:47:57.367Z,84.30
2022-08-17T00:50:26.599Z,84.60
2022-08-17T00:52:57.708Z,84.80
2022-08-17T00:55:27.984Z,85.00
2022-08-17T00:58:02.597Z,85.10
2022-08-17T01:00:35.637Z,85.20
2022-08-17T01:03:08.973Z,85.30
2022-08-17T01:05:42.314Z,85.50
2022-08-17T01:08:14.744Z,85.60
2022-08-17T01:10:59.457Z,85.80
2022-08-17T01:13:40.712Z,86.00
2022-08-17T01:16:17.390Z,86.10
2022-08-17T01:18:49.424Z,86.30
2022-08-17T01:21:26.030Z,86.70
2022-08-17T01:23:56.971Z,86.80
2022-08-17T01:26:26.033Z,86.90
2022-08-17T01:28:56.034Z,87.20
2022-08-17T01:31:29.229Z,87.50
2022-08-17T01:33:59.778Z,87.50
2022-08-17T01:36:31.530Z,87.60
2022-08-17T01:39:01.868Z,87.80
2022-08-17T01:41:31.289Z,87.80
2022-08-17T01:44:03.321Z,87.70
2022-08-17T01:46:35.087Z,87.70
2022-08-17T01:49:07.980Z,87.70
2022-08-17T01:51:37.214Z,87.90
2022-08-17T01:54:10.377Z,88.00
2022-08-17T01:56:47.842Z,88.10
2022-08-17T01:59:17.049Z,88.20
2022-08-17T02:01:46.947Z,88.30
2022-08-17T02:04:16.874Z,88.50
2022-08-17T02:06:53.715Z,88.60
2022-08-17T02:09:27.160Z,88.80
2022-08-17T02:12:39.444Z,89.00
2022-08-17T02:14:53.278Z,89.10
2022-08-17T02:17:22.370Z,89.20
2022-08-17T02:19:51.418Z,89.30
2022-08-17T02:22:20.959Z,89.40
2022-08-17T02:25:00.319Z,89.40
2022-08-17T02:27:31.208Z,89.40
2022-08-17T02:30:00.204Z,89.40
2022-08-17T02:32:29.632Z,89.50
2022-08-17T02:34:58.506Z,89.50
2022-08-17T02:37:27.974Z,89.50
2022-08-17T02:39:59.817Z,89.50
2022-08-17T02:42:31.715Z,89.50
2022-08-17T02:45:00.691Z,89.50
2022-08-17T02:47:30.033Z,89.70
2022-08-17T02:49:59.092Z,89.90
2022-08-17T02:52:41.937Z,89.90
2022-08-17T02:55:16.631Z,89.90
2022-08-17T02:57:46.032Z,90.00
2022-08-17T03:00:18.359Z,90.00
2022-08-17T03:02:47.975Z,90.00
2022-08-17T03:05:22.294Z,90.10
2022-08-17T03:07:52.078Z,90.10
2022-08-17T03:10:24.868Z,90.20
2022-08-17T03:12:56.230Z,90.30
2022-08-17T03:15:29.085Z,90.30
2022-08-17T03:17:58.633Z,90.30
2022-08-17T03:20:29.219Z,90.40
2022-08-17T03:23:01.995Z,90.40
2022-08-17T03:25:35.843Z,90.40
2022-08-17T03:28:07.070Z,90.40
2022-08-17T03:30:54.825Z,90.30
2022-08-17T03:33:24.279Z,90.40
2022-08-17T03:35:53.855Z,90.60
2022-08-17T03:38:23.332Z,90.60
2022-08-17T03:40:57.338Z,90.70
2022-08-17T03:43:30.361Z,90.60
2022-08-17T03:46:32.457Z,90.90
2022-08-17T03:49:23.800Z,90.90
2022-08-17T03:52:10.276Z,90.90
2022-08-17T03:54:57.108Z,90.90
2022-08-17T03:57:28.415Z,91.00
2022-08-17T04:00:17.351Z,91.00
2022-08-17T04:02:46.805Z,91.00
2022-08-17T04:05:16.355Z,91.10
2022-08-17T04:07:45.754Z,91.20
2022-08-17T04:10:14.938Z,91.30
2022-08-17T04:12:50.852Z,91.30
2022-08-17T04:15:20.290Z,91.30
2022-08-17T04:17:49.348Z,91.40
2022-08-17T04:20:20.020Z,91.40
2022-08-17T04:22:59.586Z,91.50
2022-08-17T04:25:29.815Z,91.50
2022-08-17T04:28:01.005Z,91.60
2022-08-17T04:30:32.296Z,91.70
2022-08-17T04:33:24.226Z,91.90
2022-08-17T04:35:55.820Z,91.90
2022-08-17T04:38:27.953Z,92.00
2022-08-17T04:41:15.440Z,92.00
2022-08-17T04:43:47.099Z,92.00
2022-08-17T04:46:25.112Z,92.00
2022-08-17T04:48:56.229Z,91.90
2022-08-17T04:51:28.173Z,91.90
2022-08-17T04:53:59.778Z,92.00
2022-08-17T04:56:30.083Z,92.00
2022-08-17T04:59:04.969Z,92.00
2022-08-17T05:01:36.705Z,92.10
2022-08-17T05:04:33.283Z,92.00
2022-08-17T05:06:59.364Z,92.00
2022-08-17T05:09:29.478Z,92.00
2022-08-17T05:12:02.639Z,91.90
2022-08-17T05:14:33.966Z,91.80
2022-08-17T05:17:07.170Z,91.80
2022-08-17T05:19:41.288Z,91.70
2022-08-17T05:22:10.399Z,91.70
2022-08-17T05:24:43.748Z,91.60
2022-08-17T05:27:24.575Z,91.50
2022-08-17T05:29:59.847Z,91.40
2022-08-17T05:32:48.325Z,91.40
2022-08-17T05:35:17.431Z,91.40
2022-08-17T05:37:46.338Z,91.30
2022-08-17T05:40:15.814Z,91.20
2022-08-17T05:42:44.856Z,91.20
2022-08-17T05:45:17.080Z,91.00
2022-08-17T05:48:07.466Z,90.90
2022-08-17T05:50:49.166Z,90.70
2022-08-17T05:53:24.377Z,90.40
2022-08-17T05:56:04.101Z,90.30
2022-08-17T05:58:39.323Z,90.20
2022-08-17T06:01:19.217Z,90.20
2022-08-17T06:03:55.340Z,90.10
2022-08-17T06:06:40.206Z,89.90
2022-08-17T06:09:24.797Z,89.40
2022-08-17T06:12:01.570Z,89.00
2022-08-17T06:14:51.341Z,88.70
2022-08-17T06:17:27.333Z,88.30
2022-08-17T06:19:59.908Z,88.00
2022-08-17T06:22:34.380Z,87.60
2022-08-17T06:25:10.118Z,87.20
2022-08-17T06:27:45.029Z,87.00
2022-08-17T06:30:17.286Z,86.80
2022-08-17T06:32:50.668Z,86.40
2022-08-17T06:35:30.125Z,85.80
2022-08-17T06:38:09.658Z,85.60
2022-08-17T06:41:21.911Z,85.50
2022-08-17T06:44:04.631Z,84.70
2022-08-17T06:46:39.554Z,84.60
2022-08-17T06:49:22.110Z,84.70
2022-08-17T06:51:57.851Z,84.30
2022-08-17T06:54:36.952Z,84.60
2022-08-17T06:57:15.376Z,83.50
2022-08-17T06:59:55.405Z,82.80
2022-08-17T07:02:52.589Z,82.10
2022-08-17T07:05:26.922Z,81.60
2022-08-17T07:08:04.291Z,81.20
2022-08-17T07:10:44.207Z,80.40
2022-08-17T07:13:25.924Z,79.70
2022-08-17T07:16:00.567Z,79.00
2022-08-17T07:18:33.363Z,78.50
2022-08-17T07:21:14.180Z,78.30
2022-08-17T07:24:02.305Z,77.90
2022-08-17T07:26:31.315Z,77.70
2022-08-17T07:29:01.013Z,77.30
2022-08-17T07:31:48.169Z,76.50
2022-08-17T07:34:16.883Z,75.70
2022-08-17T07:36:47.274Z,75.70
2022-08-17T07:39:28.879Z,75.00
2022-08-17T07:42:03.375Z,72.40
2022-08-17T07:44:52.671Z,71.30
2022-08-17T07:47:39.165Z,70.10
2022-08-17T07:50:27.896Z,69.50
2022-08-17T07:52:59.398Z,68.40
2022-08-17T07:55:31.742Z,67.50
2022-08-17T07:58:02.058Z,66.30
2022-08-17T08:00:33.065Z,65.50
2022-08-17T08:03:16.747Z,65.10
2022-08-17T08:05:57.870Z,63.90
2022-08-17T08:08:32.579Z,62.30
2022-08-17T08:11:09.855Z,61.30
2022-08-17T08:13:42.845Z,60.70
2022-08-17T08:16:24.587Z,60.00
2022-08-17T08:18:57.528Z,58.60
2022-08-17T08:21:47.968Z,58.30
2022-08-17T08:24:41.683Z,57.00
2022-08-17T08:27:22.414Z,56.50
2022-08-17T08:29:56.797Z,56.10
2022-08-17T08:32:43.116Z,55.60
2022-08-17T08:35:18.512Z,55.10
2022-08-17T08:37:55.822Z,55.00
2022-08-17T08:40:44.601Z,54.90
2022-08-17T08:43:23.814Z,54.40
2022-08-17T08:45:59.001Z,54.10
2022-08-17T08:48:56.837Z,53.60
2022-08-17T08:51:35.534Z,53.00
2022-08-17T08:54:35.982Z,53.10
2022-08-17T08:57:26.826Z,52.50
2022-08-17T09:00:12.925Z,51.90
2022-08-17T09:03:19.475Z,51.40
2022-08-17T09:06:33.291Z,50.90
2022-08-17T09:09:19.279Z,50.30
2022-08-17T09:12:02.850Z,49.80
2022-08-17T09:14:47.202Z,49.90
2022-08-17T09:17:41.340Z,49.20
2022-08-17T09:20:28.130Z,49.10
2022-08-17T09:23:03.564Z,49.40
2022-08-17T09:25:44.407Z,48.50
2022-08-17T09:28:20.591Z,48.00
2022-08-17T09:31:01.882Z,47.70
2022-08-17T09:33:35.387Z,47.80
2022-08-17T09:36:08.718Z,47.70
2022-08-17T09:38:46.551Z,47.20
2022-08-17T09:41:25.953Z,46.70
2022-08-17T09:44:04.061Z,46.30
2022-08-17T09:46:39.072Z,45.90
2022-08-17T09:49:15.309Z,46.00
2022-08-17T09:51:50.283Z,46.00
2022-08-17T09:54:40.864Z,45.80
2022-08-17T09:57:30.456Z,45.50
2022-08-17T10:00:17.384Z,45.60
2022-08-17T10:03:28.455Z,45.40
2022-08-17T10:06:31.899Z,45.80
2022-08-17T10:09:08.728Z,45.60
2022-08-17T10:12:06.283Z,45.70
2022-08-17T10:14:45.014Z,45.20
2022-08-17T10:17:28.155Z,44.90
2022-08-17T10:20:04.404Z,44.60
2022-08-17T10:22:59.275Z,44.20
2022-08-17T10:25:55.021Z,44.50
2022-08-17T10:28:30.243Z,44.10
2022-08-17T10:31:33.305Z,44.00
2022-08-17T10:34:40.360Z,43.80
2022-08-17T10:37:25.346Z,43.40
2022-08-17T10:40:04.159Z,42.90
2022-08-17T10:42:38.116Z,43.50
2022-08-17T10:45:32.197Z,42.90
2022-08-17T10:48:06.861Z,42.50
2022-08-17T10:51:09.229Z,42.50
2022-08-17T10:54:00.656Z,42.20
2022-08-17T10:56:47.743Z,42.00
2022-08-17T10:59:54.838Z,42.00
2022-08-17T11:02:28.366Z,41.40
2022-08-17T11:05:22.470Z,41.40
2022-08-17T11:08:30.740Z,41.10
2022-08-17T11:11:24.075Z,40.90
2022-08-17T11:14:11.373Z,40.20
2022-08-17T11:16:53.447Z,39.70
2022-08-17T11:19:52.866Z,39.40
2022-08-17T11:22:52.936Z,38.90
2022-08-17T11:25:33.028Z,38.20
2022-08-17T11:28:09.417Z,37.80
2022-08-17T11:30:52.330Z,37.30
2022-08-17T11:33:58.291Z,37.50
2022-08-17T11:37:10.285Z,36.60
2022-08-17T11:39:52.887Z,36.40
2022-08-17T11:42:34.678Z,36.20
2022-08-17T11:45:19.544Z,36.20
2022-08-17T11:48:30.827Z,36.70
2022-08-17T11:51:27.256Z,36.50
2022-08-17T11:57:00.918Z,36.90
2022-08-17T11:59:55.707Z,37.30
2022-08-17T12:02:47.368Z,37.70
2022-08-17T12:05:33.140Z,38.20
2022-08-17T12:08:18.732Z,38.50
2022-08-17T12:11:00.007Z,38.60
2022-08-17T12:13:39.332Z,38.80
2022-08-17T12:16:10.252Z,39.00
2022-08-17T12:18:42.182Z,38.90
2022-08-17T12:21:24.929Z,39.40
2022-08-17T12:24:00.443Z,39.90
2022-08-17T12:26:33.599Z,39.80
2022-08-17T12:29:05.145Z,39.40
2022-08-17T12:31:38.195Z,39.40
2022-08-17T12:34:07.230Z,39.20
2022-08-17T12:36:37.589Z,39.70
2022-08-17T12:39:14.095Z,39.60
2022-08-17T12:41:52.462Z,39.30
2022-08-17T12:44:23.608Z,39.10
2022-08-17T12:47:00.672Z,39.30
2022-08-17T12:49:36.327Z,39.10
2022-08-17T12:52:16.364Z,39.00
2022-08-17T12:54:55.610Z,39.00
2022-08-17T12:57:28.106Z,39.00
2022-08-17T13:00:01.056Z,38.50
2022-08-17T13:02:34.076Z,38.60
2022-08-17T13:05:27.774Z,38.20
2022-08-17T13:08:00.803Z,37.80
2022-08-17T13:10:58.146Z,38.10
2022-08-17T13:13:30.092Z,37.70
2022-08-17T13:16:01.023Z,37.10
2022-08-17T13:18:42.099Z,36.50
2022-08-17T13:21:20.161Z,36.40
2022-08-17T13:24:01.977Z,37.00
2022-08-17T13:26:35.717Z,36.90
2022-08-17T13:29:07.929Z,37.10
2022-08-17T13:31:49.802Z,37.40
2022-08-17T13:35:01.652Z,36.80
2022-08-17T13:37:34.069Z,37.20
2022-08-17T13:40:31.715Z,37.30
2022-08-17T13:43:03.531Z,37.40
2022-08-17T13:45:51.587Z,38.20
2022-08-17T13:48:29.936Z,38.90
2022-08-17T13:51:27.841Z,39.00
2022-08-17T13:54:25.899Z,39.20
2022-08-17T13:57:03.748Z,40.00
2022-08-17T13:59:54.992Z,40.70
2022-08-17T14:02:28.405Z,40.90
2022-08-17T14:05:00.820Z,41.50
2022-08-17T14:07:35.632Z,41.70
2022-08-17T14:10:11.878Z,42.10
2022-08-17T14:12:44.079Z,42.00
2022-08-17T14:15:55.601Z,42.40
2022-08-17T14:18:49.879Z,42.50
2022-08-17T14:21:12.112Z,42.90
2022-08-17T14:23:41.302Z,43.30
2022-08-17T14:26:36.671Z,43.40
2022-08-17T14:29:14.996Z,43.40
2022-08-17T14:31:53.295Z,43.80
2022-08-17T14:34:24.475Z,44.10
2022-08-17T14:36:53.918Z,44.40
2022-08-17T14:39:22.846Z,44.50
2022-08-17T14:41:53.194Z,44.30
2022-08-17T14:44:23.736Z,44.40
2022-08-17T14:46:53.101Z,44.40
2022-08-17T14:49:22.025Z,44.60
2022-08-17T14:51:51.445Z,44.30
2022-08-17T14:54:32.830Z,44.50
2022-08-17T14:57:23.530Z,44.60
2022-08-17T14:59:55.623Z,44.80
2022-08-17T15:02:30.422Z,44.90
2022-08-17T15:05:04.197Z,45.10
2022-08-17T15:07:33.422Z,45.40
2022-08-17T15:10:02.782Z,45.50
2022-08-17T15:12:34.070Z,45.80
2022-08-17T15:15:07.424Z,45.90
2022-08-17T15:17:45.186Z,46.00
2022-08-17T15:20:16.833Z,46.20
2022-08-17T15:22:50.046Z,46.40
2022-08-17T15:25:22.322Z,46.70
2022-08-17T15:27:51.808Z,47.10
2022-08-17T15:30:22.250Z,47.10
2022-08-17T15:32:54.970Z,47.20
2022-08-17T15:35:28.325Z,47.40
2022-08-17T15:37:59.203Z,47.70
2022-08-17T15:40:36.734Z,47.80
2022-08-17T15:43:08.034Z,48.00
2022-08-17T15:45:38.461Z,48.20
2022-08-17T15:48:07.685Z,48.50
2022-08-17T15:50:36.997Z,48.70
2022-08-17T15:53:06.038Z,48.80
2022-08-17T15:55:35.533Z,49.00
2022-08-17T15:58:04.629Z,49.30
2022-08-17T16:00:39.777Z,49.50
2022-08-17T16:04:01.141Z,49.80
2022-08-17T16:06:15.175Z,50.10
2022-08-17T16:08:46.345Z,50.20
2022-08-17T16:11:16.548Z,50.30
2022-08-17T16:13:54.532Z,50.40
2022-08-17T16:16:42.175Z,50.40
2022-08-17T16:19:12.633Z,50.40
2022-08-17T16:21:42.724Z,50.70
2022-08-17T16:24:12.838Z,51.00
2022-08-17T16:26:42.801Z,51.00
2022-08-17T16:29:11.972Z,51.50
2022-08-17T16:31:42.038Z,51.70
2022-08-17T16:34:17.834Z,51.80
2022-08-17T16:36:55.763Z,52.00
2022-08-17T16:39:44.003Z,52.40
2022-08-17T16:42:27.368Z,52.90
2022-08-17T16:45:18.701Z,53.40
2022-08-17T16:47:49.251Z,53.30
2022-08-17T16:50:21.700Z,53.90
2022-08-17T16:52:51.325Z,54.30
2022-08-17T16:55:22.447Z,54.20
2022-08-17T16:57:51.585Z,54.80
2022-08-17T17:00:21.187Z,55.40
2022-08-17T17:02:51.222Z,56.50
2022-08-17T17:05:51.426Z,56.30
2022-08-17T17:08:30.571Z,57.00
2022-08-17T17:11:09.084Z,57.10
2022-08-17T17:13:42.489Z,57.40
2022-08-17T17:16:19.573Z,58.60
2022-08-17T17:19:15.382Z,59.00
2022-08-17T17:21:52.194Z,59.60
2022-08-17T17:24:30.114Z,59.50
2022-08-17T17:27:15.450Z,59.30
2022-08-17T17:29:57.479Z,60.10
2022-08-17T17:32:38.039Z,60.20
2022-08-17T17:35:18.225Z,60.90
2022-08-17T17:37:49.371Z,60.90
2022-08-17T17:40:23.282Z,61.60
2022-08-17T17:42:55.281Z,62.80
2022-08-17T17:45:27.448Z,63.10
2022-08-17T17:47:57.086Z,63.20
2022-08-17T17:50:34.669Z,63.60
2022-08-17T17:53:10.296Z,63.60
2022-08-17T17:55:50.516Z,64.10
2022-08-17T17:58:31.479Z,64.50
2022-08-17T18:01:16.800Z,64.70
2022-08-17T18:04:22.883Z,64.90
2022-08-17T18:07:03.940Z,64.70
2022-08-17T18:10:19.764Z,65.10
2022-08-17T18:13:03.817Z,65.30
2022-08-17T18:15:38.632Z,65.40
2022-08-17T18:18:37.869Z,65.90
2022-08-17T18:21:17.108Z,65.90
2022-08-17T18:23:57.982Z,66.20
2022-08-17T18:26:48.544Z,66.50
2022-08-17T18:29:34.573Z,66.70
2022-08-17T18:32:31.397Z,67.00
2022-08-17T18:35:03.684Z,67.10
2022-08-17T18:37:39.598Z,67.40
2022-08-17T18:40:39.021Z,67.50
2022-08-17T18:43:14.087Z,67.50
2022-08-17T18:45:48.122Z,67.70
2022-08-17T18:48:23.926Z,67.50
2022-08-17T18:50:54.637Z,67.50
2022-08-17T18:53:39.171Z,67.70
2022-08-17T18:56:30.686Z,67.70
2022-08-17T18:59:35.030Z,67.80
2022-08-17T19:02:39.107Z,67.80
2022-08-17T19:05:30.634Z,68.20
2022-08-17T19:08:20.067Z,68.50
2022-08-17T19:10:52.705Z,68.90
2022-08-17T19:13:27.021Z,69.00
2022-08-17T19:16:14.612Z,69.10
2022-08-17T19:18:50.040Z,69.30
2022-08-17T19:21:25.079Z,70.00
2022-08-17T19:23:58.862Z,69.40
2022-08-17T19:26:53.561Z,69.50
2022-08-17T19:29:35.644Z,69.70
2022-08-17T19:32:16.319Z,69.80
2022-08-17T19:34:48.396Z,70.00
2022-08-17T19:37:37.539Z,70.10
2022-08-17T19:40:41.906Z,70.30
2022-08-17T19:43:14.868Z,70.20
2022-08-17T19:45:56.404Z,70.20
2022-08-17T19:48:38.339Z,70.20
2022-08-17T19:51:12.655Z,70.40
2022-08-17T19:54:05.026Z,70.50
2022-08-17T19:56:45.089Z,70.60
2022-08-17T19:59:21.277Z,70.70
2022-08-17T20:01:54.544Z,70.80
2022-08-17T20:04:37.519Z,70.90
2022-08-17T20:07:16.560Z,70.90
2022-08-17T20:09:51.697Z,70.80
2022-08-17T20:12:24.894Z,70.80
2022-08-17T20:14:57.485Z,70.80
2022-08-17T20:17:28.797Z,70.80
2022-08-17T20:20:02.882Z,70.80
2022-08-17T20:22:46.736Z,70.80
2022-08-17T20:25:30.381Z,70.80
2022-08-17T20:28:05.588Z,70.90
2022-08-17T20:30:39.304Z,70.90
2022-08-17T20:33:13.136Z,70.80
2022-08-17T20:36:13.393Z,70.80
2022-08-17T20:38:44.024Z,70.80
2022-08-17T20:41:14.028Z,70.70
2022-08-17T20:43:46.594Z,70.90
2022-08-17T20:46:23.116Z,70.60
2022-08-17T20:48:54.171Z,70.50
2022-08-17T20:51:28.913Z,70.70
2022-08-17T20:54:09.887Z,70.80
2022-08-17T20:56:57.534Z,71.00
2022-08-17T20:59:45.448Z,71.20
2022-08-17T21:02:20.514Z,71.50
2022-08-17T21:05:00.675Z,71.60
2022-08-17T21:07:32.997Z,72.00
2022-08-17T21:10:14.905Z,72.30
2022-08-17T21:12:44.902Z,72.50
2022-08-17T21:15:25.280Z,72.60
2022-08-17T21:18:18.558Z,72.80
2022-08-17T21:20:59.030Z,72.60
2022-08-17T21:23:40.551Z,72.50
2022-08-17T21:26:14.033Z,72.50
2022-08-17T21:29:00.578Z,72.70
2022-08-17T21:31:34.353Z,73.00
2022-08-17T21:34:33.558Z,73.00
2022-08-17T21:37:19.797Z,73.40
2022-08-17T21:39:51.984Z,73.70
2022-08-17T21:42:24.467Z,74.00
2022-08-17T21:44:55.128Z,74.20
2022-08-17T21:47:25.565Z,74.40
2022-08-17T21:49:54.557Z,74.40
2022-08-17T21:52:24.482Z,74.60
2022-08-17T21:54:55.890Z,74.80
2022-08-17T21:57:27.590Z,75.00
2022-08-17T21:59:57.662Z,75.20
2022-08-17T22:02:28.206Z,75.50
2022-08-17T22:04:58.425Z,75.80
2022-08-17T22:07:46.524Z,75.70
2022-08-17T22:10:31.326Z,75.90
2022-08-17T22:13:03.524Z,76.10
2022-08-17T22:15:34.873Z,76.30
2022-08-17T22:18:08.208Z,76.40
2022-08-17T22:20:36.812Z,76.50
2022-08-17T22:23:24.783Z,76.60
2022-08-17T22:26:02.620Z,76.70
2022-08-17T22:28:38.437Z,76.80
2022-08-17T22:31:08.682Z,77.00
2022-08-17T22:33:40.903Z,77.10
2022-08-17T22:36:11.155Z,77.30
2022-08-17T22:38:40.612Z,77.70
2022-08-17T22:41:23.396Z,78.00
2022-08-17T22:43:52.383Z,78.20
2022-08-17T22:46:21.744Z,78.20
2022-08-17T22:48:51.838Z,78.40
2022-08-17T22:51:21.594Z,78.40
2022-08-17T22:54:09.900Z,78.50
2022-08-17T22:57:05.647Z,78.50
2022-08-17T22:59:37.002Z,78.40
2022-08-17T23:02:13.832Z,78.40
2022-08-17T23:04:44.101Z,78.50
2022-08-17T23:07:13.015Z,78.40
2022-08-17T23:09:41.530Z,78.70
2022-08-17T23:12:15.172Z,78.90
2022-08-17T23:14:45.732Z,79.00
2022-08-17T23:17:14.782Z,79.00
2022-08-17T23:19:43.442Z,79.10
2022-08-17T23:22:12.206Z,79.20
2022-08-17T23:24:43.954Z,79.30
2022-08-17T23:27:14.262Z,79.70
2022-08-17T23:29:42.963Z,79.90
2022-08-17T23:32:14.047Z,80.00
2022-08-17T23:34:43.326Z,80.30
2022-08-17T23:37:13.153Z,80.30
2022-08-17T23:39:42.590Z,80.30
2022-08-17T23:42:12.480Z,80.40
2022-08-17T23:44:43.901Z,80.60
2022-08-17T23:47:30.801Z,80.60
2022-08-17T23:49:59.493Z,80.70
2022-08-17T23:52:30.717Z,80.80
2022-08-17T23:54:59.602Z,80.90
2022-08-17T23:57:33.530Z,81.20
